IJM612 EKBI-EHAM
Flight info
| Callsign | IJM612 |
|---|---|
| Flight time | 0h 48m |
| Altitude | 38000 |
| Route | MIKRO DCT IPSUB P174 KUBAT T200 BLUFA |
| Aircraft | CL60/M-SBDE1E2E3FGHIJ1J4J5J7M3RWXYZ/LB1V1D1 |
Departure
| Time | 2026-04-30 18:26 |
|---|---|
| Airport | Billund Airport (EKBI) |
Arrival
| Time | 2026-04-30 19:14 |
|---|---|
| Airport | Amsterdam Airport Schiphol (EHAM) |
| Time | Latitude | Longitude | Altitude | Speed | Heading |
|---|---|---|---|---|---|
| 2026-04-30 18:05 | 55.73750 | 9.13630 | 223 ft | 0 kts | 177° |
| 2026-04-30 18:22 | 55.73755 | 9.13655 | 223 ft | 6 kts | 6° |
| 2026-04-30 18:22 | 55.73824 | 9.13715 | 223 ft | 8 kts | 84° |
| 2026-04-30 18:22 | 55.73829 | 9.13858 | 224 ft | 14 kts | 86° |
| 2026-04-30 18:23 | 55.73836 | 9.14053 | 225 ft | 16 kts | 88° |
| 2026-04-30 18:23 | 55.73865 | 9.14246 | 227 ft | 16 kts | 63° |
| 2026-04-30 18:23 | 55.73939 | 9.14406 | 228 ft | 17 kts | 44° |
| 2026-04-30 18:23 | 55.74009 | 9.14595 | 229 ft | 19 kts | 78° |
| 2026-04-30 18:24 | 55.74031 | 9.15151 | 231 ft | 25 kts | 87° |
| 2026-04-30 18:24 | 55.74041 | 9.15474 | 232 ft | 27 kts | 87° |
| 2026-04-30 18:24 | 55.74052 | 9.15828 | 234 ft | 29 kts | 86° |
| 2026-04-30 18:25 | 55.74073 | 9.16053 | 236 ft | 10 kts | 71° |
| 2026-04-30 18:25 | 55.74059 | 9.16042 | 236 ft | 0 kts | 267° |
| 2026-04-30 18:25 | 55.74055 | 9.15929 | 235 ft | 41 kts | 266° |
| 2026-04-30 18:26 | 55.73957 | 9.12768 | 1015 ft | 170 kts | 268° |
| 2026-04-30 18:26 | 55.74174 | 9.10732 | 1993 ft | 189 kts | 300° |
| 2026-04-30 18:26 | 55.74976 | 9.08685 | 2691 ft | 211 kts | 308° |
| 2026-04-30 18:27 | 55.76918 | 9.04454 | 4170 ft | 230 kts | 311° |
| 2026-04-30 18:27 | 55.77955 | 9.02286 | 4918 ft | 234 kts | 311° |
| 2026-04-30 18:28 | 55.79657 | 8.97383 | 6396 ft | 247 kts | 274° |
| 2026-04-30 18:28 | 55.79287 | 8.94417 | 7032 ft | 258 kts | 237° |
| 2026-04-30 18:28 | 55.76690 | 8.89099 | 8884 ft | 313 kts | 226° |
| 2026-04-30 18:29 | 55.75167 | 8.86123 | 9640 ft | 343 kts | 226° |
| 2026-04-30 18:29 | 55.69935 | 8.75543 | 11247 ft | 406 kts | 229° |
| 2026-04-30 18:30 | 55.66267 | 8.67876 | 11872 ft | 412 kts | 229° |
| 2026-04-30 18:30 | 55.62590 | 8.60210 | 12929 ft | 410 kts | 229° |
| 2026-04-30 18:31 | 55.60720 | 8.56320 | 13686 ft | 418 kts | 229° |
| 2026-04-30 18:31 | 55.56896 | 8.48381 | 15230 ft | 432 kts | 229° |
| 2026-04-30 18:32 | 55.52300 | 8.41774 | 16749 ft | 439 kts | 205° |
| 2026-04-30 18:32 | 55.49519 | 8.39475 | 17495 ft | 444 kts | 205° |
| 2026-04-30 18:32 | 55.43890 | 8.34810 | 19004 ft | 453 kts | 204° |
| 2026-04-30 18:33 | 55.41069 | 8.32474 | 19951 ft | 454 kts | 204° |
| 2026-04-30 18:33 | 55.35375 | 8.27769 | 21957 ft | 454 kts | 205° |
| 2026-04-30 18:33 | 55.32546 | 8.25436 | 22970 ft | 452 kts | 205° |
| 2026-04-30 18:34 | 55.29728 | 8.23115 | 23976 ft | 450 kts | 205° |
| 2026-04-30 18:34 | 55.24108 | 8.18498 | 25965 ft | 446 kts | 205° |
| 2026-04-30 18:34 | 55.21325 | 8.16216 | 26731 ft | 448 kts | 205° |
| 2026-04-30 18:35 | 55.18464 | 8.13873 | 27383 ft | 453 kts | 205° |
| 2026-04-30 18:35 | 55.15628 | 8.11554 | 27945 ft | 458 kts | 205° |
| 2026-04-30 18:35 | 55.12723 | 8.09183 | 28463 ft | 463 kts | 205° |
| 2026-04-30 18:36 | 55.06870 | 8.04417 | 29474 ft | 471 kts | 206° |
| 2026-04-30 18:36 | 55.03885 | 8.01991 | 29975 ft | 474 kts | 206° |
| 2026-04-30 18:36 | 54.97919 | 7.97156 | 31194 ft | 473 kts | 206° |
| 2026-04-30 18:37 | 54.94953 | 7.94758 | 31914 ft | 469 kts | 206° |
| 2026-04-30 18:37 | 54.92027 | 7.92397 | 32630 ft | 464 kts | 206° |
| 2026-04-30 18:37 | 54.89126 | 7.90059 | 33304 ft | 460 kts | 206° |
| 2026-04-30 18:37 | 54.86236 | 7.87734 | 33908 ft | 458 kts | 206° |
| 2026-04-30 18:38 | 54.83342 | 7.85409 | 34441 ft | 456 kts | 206° |
| 2026-04-30 18:38 | 54.80487 | 7.83118 | 34956 ft | 455 kts | 206° |
| 2026-04-30 18:38 | 54.77594 | 7.80802 | 35463 ft | 454 kts | 206° |
| 2026-04-30 18:38 | 54.74752 | 7.78529 | 35945 ft | 453 kts | 206° |
| 2026-04-30 18:39 | 54.71909 | 7.76259 | 36420 ft | 452 kts | 206° |
| 2026-04-30 18:39 | 54.69068 | 7.73994 | 36873 ft | 451 kts | 206° |
| 2026-04-30 18:39 | 54.66242 | 7.71745 | 37304 ft | 449 kts | 206° |
| 2026-04-30 18:39 | 54.63361 | 7.69454 | 37717 ft | 449 kts | 206° |
| 2026-04-30 18:40 | 54.60548 | 7.67223 | 37985 ft | 451 kts | 205° |
| 2026-04-30 18:40 | 54.57738 | 7.64996 | 38231 ft | 452 kts | 205° |
| 2026-04-30 18:40 | 54.54871 | 7.62728 | 38434 ft | 455 kts | 205° |
| 2026-04-30 18:41 | 54.49062 | 7.58142 | 38434 ft | 467 kts | 205° |
| 2026-04-30 18:41 | 54.43101 | 7.53453 | 38437 ft | 474 kts | 205° |
| 2026-04-30 18:42 | 54.37112 | 7.48756 | 38433 ft | 475 kts | 205° |
| 2026-04-30 18:42 | 54.28132 | 7.41743 | 38426 ft | 472 kts | 205° |
| 2026-04-30 18:45 | 53.95298 | 7.16384 | 38408 ft | 472 kts | 204° |
| 2026-04-30 18:45 | 53.92313 | 7.14100 | 37996 ft | 477 kts | 204° |
| 2026-04-30 18:46 | 53.89323 | 7.11816 | 37365 ft | 471 kts | 204° |
| 2026-04-30 18:46 | 53.86354 | 7.09551 | 36742 ft | 466 kts | 204° |
| 2026-04-30 18:46 | 53.83428 | 7.07323 | 36130 ft | 464 kts | 204° |
| 2026-04-30 18:46 | 53.80470 | 7.05074 | 35509 ft | 465 kts | 204° |
| 2026-04-30 18:47 | 53.77516 | 7.02831 | 34886 ft | 466 kts | 204° |
| 2026-04-30 18:47 | 53.74546 | 7.00581 | 34278 ft | 468 kts | 204° |
| 2026-04-30 18:47 | 53.71595 | 6.98347 | 33660 ft | 469 kts | 204° |
| 2026-04-30 18:47 | 53.68665 | 6.96133 | 33041 ft | 466 kts | 204° |
| 2026-04-30 18:48 | 53.65683 | 6.93883 | 32414 ft | 467 kts | 204° |
| 2026-04-30 18:48 | 53.62745 | 6.91670 | 31791 ft | 467 kts | 204° |
| 2026-04-30 18:48 | 53.59776 | 6.89437 | 31164 ft | 465 kts | 204° |
| 2026-04-30 18:48 | 53.56882 | 6.87263 | 30549 ft | 461 kts | 204° |
| 2026-04-30 18:49 | 53.53975 | 6.85083 | 29922 ft | 456 kts | 203° |
| 2026-04-30 18:49 | 53.51075 | 6.82911 | 29296 ft | 453 kts | 203° |
| 2026-04-30 18:49 | 53.48208 | 6.80768 | 28675 ft | 455 kts | 203° |
| 2026-04-30 18:49 | 53.45311 | 6.78606 | 28046 ft | 454 kts | 203° |
| 2026-04-30 18:50 | 53.42469 | 6.76487 | 27427 ft | 451 kts | 203° |
| 2026-04-30 18:50 | 53.39596 | 6.74348 | 26801 ft | 447 kts | 203° |
| 2026-04-30 18:50 | 53.36794 | 6.72265 | 26180 ft | 443 kts | 202° |
| 2026-04-30 18:50 | 53.34013 | 6.70200 | 25801 ft | 435 kts | 202° |
| 2026-04-30 18:51 | 53.31226 | 6.68136 | 25554 ft | 436 kts | 202° |
| 2026-04-30 18:51 | 53.28469 | 6.66097 | 25309 ft | 436 kts | 202° |
| 2026-04-30 18:51 | 53.25696 | 6.64048 | 25057 ft | 434 kts | 202° |
| 2026-04-30 18:51 | 53.22935 | 6.62011 | 24805 ft | 433 kts | 202° |
| 2026-04-30 18:52 | 53.20221 | 6.60011 | 24556 ft | 431 kts | 202° |
| 2026-04-30 18:52 | 53.17461 | 6.57981 | 24309 ft | 429 kts | 202° |
| 2026-04-30 18:52 | 53.14761 | 6.55997 | 24058 ft | 427 kts | 202° |
| 2026-04-30 18:52 | 53.12035 | 6.53996 | 23808 ft | 425 kts | 202° |
| 2026-04-30 18:53 | 53.09352 | 6.52031 | 23562 ft | 423 kts | 202° |
| 2026-04-30 18:53 | 53.06661 | 6.50061 | 23316 ft | 421 kts | 202° |
| 2026-04-30 18:53 | 53.03997 | 6.48115 | 22890 ft | 421 kts | 202° |
| 2026-04-30 18:53 | 53.01304 | 6.46149 | 22461 ft | 417 kts | 201° |
| 2026-04-30 18:54 | 52.98694 | 6.44247 | 22004 ft | 414 kts | 201° |
| 2026-04-30 18:54 | 52.96058 | 6.42328 | 21541 ft | 411 kts | 201° |
| 2026-04-30 18:54 | 52.93443 | 6.40427 | 21092 ft | 409 kts | 201° |
| 2026-04-30 18:54 | 52.90848 | 6.38543 | 20643 ft | 407 kts | 201° |
| 2026-04-30 18:55 | 52.88253 | 6.36662 | 20184 ft | 404 kts | 201° |
| 2026-04-30 18:55 | 52.83407 | 6.32100 | 19282 ft | 407 kts | 219° |
| 2026-04-30 18:55 | 52.81578 | 6.28496 | 18793 ft | 408 kts | 232° |
| 2026-04-30 18:56 | 52.78433 | 6.20968 | 17906 ft | 387 kts | 232° |
| 2026-04-30 18:56 | 52.76920 | 6.17364 | 17479 ft | 377 kts | 232° |
| 2026-04-30 18:56 | 52.75451 | 6.13875 | 17074 ft | 367 kts | 231° |
| 2026-04-30 18:57 | 52.72597 | 6.07110 | 16278 ft | 351 kts | 231° |
| 2026-04-30 18:57 | 52.71206 | 6.03819 | 15888 ft | 345 kts | 231° |
| 2026-04-30 18:57 | 52.69848 | 6.00612 | 15504 ft | 338 kts | 231° |
| 2026-04-30 18:58 | 52.67215 | 5.94409 | 14778 ft | 327 kts | 231° |
| 2026-04-30 18:58 | 52.65929 | 5.91384 | 14428 ft | 321 kts | 231° |
| 2026-04-30 18:58 | 52.64654 | 5.88392 | 14075 ft | 320 kts | 231° |
| 2026-04-30 18:59 | 52.62091 | 5.82394 | 13364 ft | 320 kts | 231° |
| 2026-04-30 19:00 | 52.58288 | 5.73512 | 12303 ft | 316 kts | 231° |
| 2026-04-30 19:00 | 52.57024 | 5.70566 | 11940 ft | 313 kts | 231° |
| 2026-04-30 19:00 | 52.54542 | 5.64798 | 11239 ft | 312 kts | 230° |
| 2026-04-30 19:01 | 52.51435 | 5.60153 | 10443 ft | 301 kts | 213° |
| 2026-04-30 19:01 | 52.49807 | 5.58079 | 10051 ft | 296 kts | 213° |
| 2026-04-30 19:02 | 52.46585 | 5.53975 | 9533 ft | 293 kts | 213° |
| 2026-04-30 19:02 | 52.43380 | 5.49899 | 9027 ft | 291 kts | 213° |
| 2026-04-30 19:03 | 52.40196 | 5.45852 | 8529 ft | 288 kts | 213° |
| 2026-04-30 19:03 | 52.37054 | 5.41852 | 8052 ft | 286 kts | 213° |
| 2026-04-30 19:04 | 52.33919 | 5.37856 | 7540 ft | 283 kts | 213° |
| 2026-04-30 19:04 | 52.30823 | 5.33908 | 7027 ft | 281 kts | 212° |
| 2026-04-30 19:05 | 52.27763 | 5.30016 | 6529 ft | 278 kts | 212° |
| 2026-04-30 19:05 | 52.24733 | 5.26147 | 6025 ft | 276 kts | 212° |
| 2026-04-30 19:06 | 52.21731 | 5.22303 | 5510 ft | 273 kts | 212° |
| 2026-04-30 19:06 | 52.20230 | 5.20381 | 5267 ft | 272 kts | 212° |
| 2026-04-30 19:06 | 52.17288 | 5.16604 | 4767 ft | 269 kts | 212° |
| 2026-04-30 19:07 | 52.14387 | 5.12862 | 4316 ft | 264 kts | 212° |
| 2026-04-30 19:07 | 52.12940 | 5.10995 | 4314 ft | 265 kts | 212° |
| 2026-04-30 19:08 | 52.10359 | 5.06721 | 4291 ft | 278 kts | 242° |
| 2026-04-30 19:08 | 52.10204 | 5.00377 | 3815 ft | 286 kts | 272° |
| 2026-04-30 19:08 | 52.10400 | 4.97185 | 3570 ft | 280 kts | 272° |
| 2026-04-30 19:09 | 52.10798 | 4.91072 | 3106 ft | 263 kts | 273° |
| 2026-04-30 19:09 | 52.10993 | 4.88149 | 2865 ft | 262 kts | 273° |
| 2026-04-30 19:09 | 52.11186 | 4.85194 | 2605 ft | 262 kts | 272° |
| 2026-04-30 19:10 | 52.12173 | 4.79707 | 2166 ft | 253 kts | 315° |
| 2026-04-30 19:10 | 52.15069 | 4.76789 | 1990 ft | 244 kts | 348° |
| 2026-04-30 19:11 | 52.16670 | 4.76568 | 2010 ft | 220 kts | 11° |
| 2026-04-30 19:11 | 52.19519 | 4.76852 | 1840 ft | 201 kts | 11° |
| 2026-04-30 19:11 | 52.20882 | 4.76973 | 1557 ft | 186 kts | 11° |
| 2026-04-30 19:12 | 52.22127 | 4.77078 | 1386 ft | 176 kts | 11° |
| 2026-04-30 19:12 | 52.23316 | 4.77191 | 1135 ft | 162 kts | 11° |
| 2026-04-30 19:12 | 52.24355 | 4.77276 | 978 ft | 141 kts | 11° |
| 2026-04-30 19:13 | 52.26306 | 4.77463 | 627 ft | 137 kts | 11° |
| 2026-04-30 19:13 | 52.28201 | 4.77639 | 382 ft | 132 kts | 10° |
| 2026-04-30 19:13 | 52.29127 | 4.77728 | 222 ft | 133 kts | 10° |
| 2026-04-30 19:14 | 52.29933 | 4.78212 | 79 ft | 119 kts | 41° |
| 2026-04-30 19:14 | 52.30546 | 4.79079 | -4 ft | 104 kts | 43° |
| 2026-04-30 19:14 | 52.30868 | 4.79540 | -4 ft | 23 kts | 42° |
| 2026-04-30 19:14 | 52.30888 | 4.79645 | -4 ft | 10 kts | 132° |
| 2026-04-30 19:15 | 52.30833 | 4.79747 | -4 ft | 12 kts | 123° |
| 2026-04-30 19:15 | 52.30957 | 4.80015 | -4 ft | 19 kts | 41° |
| 2026-04-30 19:15 | 52.31052 | 4.80151 | -4 ft | 12 kts | 48° |
| 2026-04-30 19:16 | 52.31039 | 4.80276 | -4 ft | 13 kts | 131° |
| 2026-04-30 19:16 | 52.30973 | 4.80399 | -4 ft | 11 kts | 127° |
| 2026-04-30 19:16 | 52.31076 | 4.80638 | -4 ft | 12 kts | 42° |
| 2026-04-30 19:17 | 52.31120 | 4.80645 | -4 ft | 7 kts | 312° |
| 2026-04-30 19:17 | 52.31133 | 4.80622 | -5 ft | 0 kts | 313° |